Terminal Aerodrome Forecast
Issued by NWS

Home | Current Version | Previous Version | Graphics & Text | Print | Product List | Glossary On
Versions: 1 2 3 4 5 6 7 8 9 10 11 12 13 14 15 16 17 18 19 20 21 22 23 24 25 26
000
FTUS43 KABR 161400 AAA
TAFATY
TAF AMD
KATY 161413Z 1614/1712 09020G30KT P6SM OVC040
     FM161500 09020G30KT 1SM -SN OVC025
     FM161600 07020G30KT 1/2SM SN BLSN OVC009
     FM162000 03021G30KT 2SM -SN BLSN OVC025
     FM170000 36016KT P6SM OVC030
     FM170500 01010KT P6SM SKC=

USA.gov is the U.S. government's official web portal to all federal, state and local government web resources and services.